CST,Max TemperatureF,Mean TemperatureF,Min TemperatureF,Max Dew PointF,MeanDew PointF,Min DewpointF,Max Humidity, Mean Humidity, Min Humidity, Max Sea Level PressureIn, Mean Sea Level PressureIn, Min Sea Level PressureIn, Max VisibilityMiles, Mean VisibilityMiles, Min VisibilityMiles, Max Wind SpeedMPH, Mean Wind SpeedMPH, Max Gust SpeedMPH,PrecipitationIn, CloudCover, Events, WindDirDegrees
2013-1-1,16,3,-10,8,-2,-12,95,77,58,30.39,30.29,30.18,10,10,10,12,3,13,T,4,,217
2013-1-2,21,15,9,15,9,2,77,70,62,30.17,30.10,30.02,10,9,5,14,7,17,T,6,Snow,177
2013-1-3,22,15,7,18,11,2,84,75,66,30.33,30.24,30.07,10,8,4,14,7,16,T,5,Snow,265
2013-1-4,32,20,7,16,11,3,84,69,53,30.23,30.17,30.14,10,10,10,10,6,14,0.00,0,,202
2013-1-5,33,22,10,25,15,8,92,77,61,30.22,30.06,29.88,10,9,6,22,9,25,0.00,1,,171
2013-1-6,26,20,14,16,12,7,84,70,55,30.30,30.20,30.00,10,9,7,15,7,21,0.00,3,,301
2013-1-7,37,27,16,25,19,10,88,72,56,30.24,30.08,30.00,10,10,10,22,11,28,0.00,0,,182
2013-1-8,37,26,14,29,22,12,96,81,67,30.08,29.98,29.87,10,8,5,17,7,22,0.00,2,,168
2013-1-9,38,30,22,26,22,18,81,67,52,30.46,30.27,30.00,10,10,10,20,9,28,0.00,0,,230
2013-1-10,41,30,18,34,24,16,92,68,44,30.47,30.20,29.82,10,9,3,13,7,17,0.14,3,Rain,142
2013-1-11,43,38,33,41,36,33,100,95,89,29.79,29.61,29.48,10,2,0,15,7,21,0.02,7,Fog,163
2013-1-12,48,31,14,40,16,5,89,73,57,30.09,29.90,29.49,10,10,10,29,14,41,T,6,,253
2013-1-13,14,11,8,3,2,1,73,67,61,30.32,30.15,30.00,10,10,7,18,9,22,T,6,Snow,291
2013-1-14,23,14,5,11,5,0,84,69,54,30.49,30.44,30.35,10,10,10,15,5,21,T,2,,229
2013-1-15,33,21,9,14,11,7,92,68,43,30.43,30.27,30.02,10,10,10,18,9,24,0.00,0,,180
2013-1-16,40,31,22,29,20,8,82,66,50,30.19,29.89,29.75,10,9,2,22,11,26,T,6,Snow,252
2013-1-17,26,18,10,11,5,-2,74,58,41,30.46,30.40,30.27,10,10,10,17,7,20,T,2,,310
2013-1-18,48,33,17,31,22,11,77,63,49,30.41,30.04,29.80,10,9,2,28,10,35,0.01,4,Snow,175
2013-1-19,48,28,7,31,20,-4,89,67,45,30.14,29.86,29.70,10,10,4,38,15,51,T,5,Snow,252
2013-1-20,15,10,5,1,-3,-5,69,57,44,30.44,30.32,30.14,10,10,4,25,12,30,T,3,Snow,306
2013-1-21,6,1,-5,0,-12,-15,69,59,49,30.42,30.31,30.20,10,10,4,20,13,25,T,5,Snow,299
2013-1-22,8,0,-9,-5,-11,-15,75,62,49,30.49,30.41,30.31,10,10,8,12,6,14,0.00,2,,299
2013-1-23,19,9,-2,12,3,-14,83,67,51,30.62,30.26,30.10,10,7,2,26,11,35,0.01,7,Snow,277
2013-1-24,15,6,-4,2,-7,-15,66,59,51,30.77,30.61,30.35,10,10,10,15,5,17,0.00,3,,50
2013-1-25,24,17,10,16,9,2,88,72,56,30.33,30.13,29.96,10,8,2,22,11,26,0.03,6,Snow,272
2013-1-26,26,13,0,10,4,-2,86,68,50,30.47,30.38,30.28,10,10,10,16,5,17,0.00,3,,169
2013-1-27,32,29,26,31,24,11,100,75,50,30.28,30.02,29.82,10,5,1,14,8,18,0.42,8,Rain-Snow,137
2013-1-28,35,33,31,32,31,30,96,93,89,29.96,29.85,29.70,9,4,1,10,4,13,0.03,8,,347
2013-1-29,44,39,34,43,36,29,96,86,75,29.65,29.56,29.48,10,5,0,17,9,22,0.14,8,Fog-Rain,252
2013-1-30,34,24,14,28,18,5,92,80,67,29.74,29.56,29.48,10,4,0,28,18,32,0.28,8,Fog-Snow,328
2013-1-31,14,6,-2,8,0,-10,87,76,65,30.31,29.95,29.73,10,5,0,21,14,26,0.01,7,Fog-Snow,301